• Join FlightAware (Why Join?)
  • Login
  • US Flag 
09:43PM EDT


 

Airport Tracker/Info


-or-


 

Live Flight TrackerFlight Track Log ✈ N49KC ✈ 06-Jul-2013 ✈ KMKE - KFCM

Flight Track Log - Related Links

Times and Time Zones

All times are in EDT time to prevent confusion due to time zone crossing. See the N49KC flight status page for this flight to view local times or setup timezone preferences in your user account.

Time Position Orientation Groundspeed Altitude Reporting Facility
EDT Latitude Longitude Course Direction KTS MPH feet Rate Location/Type
11:50AM 42.9483 -87.9569 315° West 137 158 4,500  Level Chicago Center
11:51AM 42.9828 -87.9900 325° Northwest 146 168 6,300 1,560 Climbing Chicago Center
11:52AM 43.0186 -88.0328 319° Northwest 166 191 7,800 1,500 Climbing Chicago Center
11:53AM 43.0528 -88.0728 319° Northwest 164 189 9,500 1,620 Climbing Chicago Center
11:54AM 43.0953 -88.1228 319° Northwest 171 197 11,200 1,440 Climbing Chicago Center
11:55AM 43.1247 -88.1708 310° West 166 191 12,500 1,200 Climbing Chicago Center
11:56AM 43.1433 -88.2300 293° West 169 194 13,700 1,020 Climbing Chicago Center
11:57AM 43.1633 -88.2856 296° West 164 189 14,700 960 Climbing Chicago Center
11:58AM 43.1844 -88.3467 295° West 175 201 15,700 900 Climbing Chicago Center
11:59AM 43.2058 -88.4050 297° West 172 198 16,600 840 Climbing Chicago Center
12:00PM 43.2264 -88.4661 295° West 176 203 17,500 780 Climbing Chicago Center
12:01PM 43.2517 -88.5386 296° West 179 206 18,300 720 Climbing Chicago Center
12:02PM 43.2753 -88.6050 296° West 189 217 19,000 720 Climbing Chicago Center
12:03PM 43.2983 -88.6722 295° West 193 222 19,800 480 Climbing Chicago Center
12:04PM 43.3217 -88.7425 295° West 200 230 20,100 480 Climbing Chicago Center
12:06PM 43.3458 -88.8167 294° West 211 243 20,800 720 Climbing Chicago Center
12:07PM 43.3686 -88.8856 294° West 201 231 21,600 480 Climbing Chicago Center
12:08PM 43.3933 -88.9681 292° West 199 229 21,900 180 Climbing Chicago Center
12:09PM 43.4169 -89.0456 293° West 215 247 22,000  Climbing Chicago Center
12:10PM 43.4442 -89.1250 295° West 226 260 22,000  Level Chicago Center
12:11PM 43.4719 -89.2067 295° West 233 268 22,000  Level Chicago Center
12:12PM 43.4989 -89.2906 294° West 238 274 22,000  Level Chicago Center
12:13PM 43.5281 -89.3708 297° West 235 270 22,000  Level Chicago Center
12:14PM 43.5583 -89.4675 293° West 236 272 22,000  Level Chicago Center
12:15PM 43.5881 -89.5508 296° West 240 276 22,000  Level Chicago Center
12:16PM 43.6131 -89.6350 292° West 239 275 22,000  Level Chicago Center
12:17PM 43.6397 -89.7189 294° West 239 275 22,000  Level Chicago Center
12:18PM 43.6656 -89.8028 293° West 236 272 22,000  Level Chicago Center
12:19PM 43.6936 -89.8869 295° West 240 276 22,000  Level Chicago Center
12:20PM 43.7242 -89.9836 294° West 237 273 22,000  Level Chicago Center
12:21PM 43.7494 -90.0672 293° West 237 273 22,000  Level Chicago Center
12:22PM 43.7758 -90.1511 294° West 236 272 22,000  Level Chicago Center
12:23PM 43.7964 -90.2211 292° West 237 273 22,000  Level Minneapolis Center
12:24PM 43.8111 -90.2778 290° West 236 272 22,000  Level Minneapolis Center
12:25PM 43.8414 -90.3747 293° West 236 272 22,000  Level Minneapolis Center
12:26PM 43.8694 -90.4731 292° West 235 270 22,000  Level Minneapolis Center
12:27PM 43.8936 -90.5558 292° West 232 267 22,000  Level Minneapolis Center
12:28PM 43.9181 -90.6450 291° West 234 269 22,000  Level Minneapolis Center
12:29PM 43.9458 -90.7450 291° West 235 270 22,000 -180 Level Minneapolis Center
12:30PM 43.9686 -90.8308 290° West 239 275 21,700 -720 Descending Minneapolis Center
12:31PM 43.9964 -90.9433 289° West 259 298 20,600 -780 Descending Minneapolis Center
12:32PM 44.0239 -91.0389 292° West 267 307 20,100 -780 Descending Minneapolis Center
12:33PM 44.0531 -91.1308 294° West 265 305 19,000 -1,020 Descending Minneapolis Center
12:34PM 44.0831 -91.2275 293° West 270 311 18,000 -780 Descending Minneapolis Center
12:35PM 44.1128 -91.3247 293° West 273 314 17,400 -960 Descending Minneapolis Center
12:36PM 44.1478 -91.4381 293° West 270 311 16,100 -1,020 Descending Minneapolis Center
12:37PM 44.1775 -91.5342 293° West 271 312 15,300 -900 Descending Minneapolis Center
12:39PM 44.2069 -91.6272 294° West 267 307 14,300 -600 Descending Minneapolis Center
12:40PM 44.2336 -91.7200 292° West 262 302 14,100 -120 Descending Minneapolis Center
12:41PM 44.2594 -91.8058 293° West 249 287 14,100  Level Minneapolis Center
12:42PM 44.2928 -91.9236 292° West 236 272 14,100  Level Minneapolis Center
12:43PM 44.3150 -92.0058 291° West 230 265 14,100 -420 Level Minneapolis Center
12:44PM 44.3372 -92.0942 289° West 237 273 13,300 -780 Descending Minneapolis Center
12:45PM 44.3631 -92.1869 291° West 251 289 12,500 -780 Descending Minneapolis Center
12:46PM 44.3919 -92.2767 294° West 254 292 11,700 -1,440 Descending Minneapolis Center
12:47PM 44.4239 -92.3850 292° West 261 300 9,500 -2,700 Descending Minneapolis Center
12:48PM 44.4561 -92.4822 295° West 265 305 6,100 -1,740 Descending Minneapolis Center
12:49PM 44.4817 -92.5631 294° West 226 260 6,000  Descending Minneapolis Center
12:50PM 44.5014 -92.6389 290° West 210 242 6,100 -300 Climbing Minneapolis Center
12:51PM 44.5217 -92.7217 289° West 225 259 5,500 -540 Descending Minneapolis Center
12:52PM 44.5419 -92.8061 289° West 232 267 5,000 -540 Descending Minneapolis Center
12:53PM 44.5692 -92.9069 291° West 231 266 4,400 -540 Descending Minneapolis Center
12:54PM 44.5897 -92.9897 289° West 226 260 3,900 -600 Descending Minneapolis Center
12:55PM 44.6117 -93.0692 291° West 219 252 3,200 -420 Descending Minneapolis Center
12:56PM 44.6303 -93.1419 290° West 201 231 3,100 -60 Descending Minneapolis Center
12:57PM 44.6522 -93.2050 296° West 184 212 3,100  Level Minneapolis Center
12:58PM 44.6864 -93.2608 311° West 186 214 3,100 -60 Level Minneapolis Center
12:59PM 44.7217 -93.3161 312° West 187 215 3,000 -300 Descending Minneapolis Center
01:00PM 44.7631 -93.3683 318° Northwest 196 226 2,500 -540 Descending Minneapolis Center
01:01PM 44.8028 -93.3944 335° Northwest 157 181 2,000 -720 Descending Minneapolis Center
01:03PM 44.8253 -93.4439 303° West 127 146 1,100 -900 Descending Minneapolis Center
01:04PM 44.8167 -93.4500 325° Northwest  Level FlightAware Approximate
01:11PM 44.8275 -93.4586 325° Northwest  Level Estimated